Time;durP1;ratioP1;P1;durP2;ratioP2;P2;SDS_P1;SDS_P2;PMS_P1;PMS_P2;Temp;Humidity;BMP_temperature;BMP_pressure;BME280_temperature;BME280_humidity;BME280_pressure;Samples;Min_cycle;Max_cycle;Signal;HPM_P1;HPM_P2
2021/06/08 00:00:36;;;;;;;4.00;3.60;;;;;;;;;;5001228;28;20025;-60
2021/06/08 00:03:03;;;;;;;4.40;3.92;;;;;;;;;;4997031;28;20032;-59
2021/06/08 00:05:28;;;;;;;3.88;3.28;;;;;;;;;;5002582;28;20031;-59
2021/06/08 00:07:54;;;;;;;3.53;3.22;;;;;;;;;;5006114;28;20029;-60
2021/06/08 00:10:20;;;;;;;4.47;3.30;;;;;;;;;;5006588;28;20108;-59
2021/06/08 00:12:46;;;;;;;3.88;3.55;;;;;;;;;;4998779;28;20036;-59
2021/06/08 00:15:12;;;;;;;3.50;3.17;;;;;;;;;;5004156;28;20026;-59
2021/06/08 00:17:38;;;;;;;5.80;3.72;;;;;;;;;;5004926;28;20029;-59
2021/06/08 00:20:05;;;;;;;4.60;4.05;;;;;;;;;;5000632;28;20041;-59
2021/06/08 00:22:30;;;;;;;4.43;4.03;;;;;;;;;;5005360;28;21324;-59
2021/06/08 00:24:56;;;;;;;4.03;3.60;;;;;;;;;;5007765;28;20030;-59
2021/06/08 00:27:22;;;;;;;3.97;3.58;;;;;;;;;;5018173;28;20033;-59
2021/06/08 00:29:47;;;;;;;3.58;3.28;;;;;;;;;;5004574;28;20047;-60
2021/06/08 00:32:13;;;;;;;3.85;3.55;;;;;;;;;;5007892;28;20038;-59
2021/06/08 00:34:38;;;;;;;3.85;3.55;;;;;;;;;;4999039;28;20029;-59
2021/06/08 00:37:04;;;;;;;4.25;3.83;;;;;;;;;;5002592;28;20033;-59
2021/06/08 00:39:29;;;;;;;3.33;3.03;;;;;;;;;;4994480;28;20404;-59
2021/06/08 00:41:54;;;;;;;3.90;3.50;;;;;;;;;;5003121;28;20492;-59
2021/06/08 00:44:20;;;;;;;3.50;3.20;;;;;;;;;;5001907;28;20033;-59
2021/06/08 00:46:46;;;;;;;3.50;3.20;;;;;;;;;;5002129;28;20037;-59
2021/06/08 00:49:13;;;;;;;3.30;3.00;;;;;;;;;;5000288;28;20026;-59
2021/06/08 00:51:38;;;;;;;4.18;2.97;;;;;;;;;;5006599;28;20030;-59
2021/06/08 00:54:10;;;;;;;2.88;2.63;;;;;;;;;;4997606;28;20021;-58
2021/06/08 00:56:40;;;;;;;3.28;3.00;;;;;;;;;;4995989;28;20033;-59
2021/06/08 00:59:06;;;;;;;3.38;2.97;;;;;;;;;;5002731;28;20032;-59
2021/06/08 01:01:33;;;;;;;3.28;2.97;;;;;;;;;;5000538;28;20089;-59
2021/06/08 01:03:58;;;;;;;3.58;3.28;;;;;;;;;;5003776;28;20045;-59
2021/06/08 01:06:24;;;;;;;3.45;3.17;;;;;;;;;;5001521;28;20037;-59
2021/06/08 01:08:49;;;;;;;4.00;3.20;;;;;;;;;;5003854;28;20091;-59
2021/06/08 01:11:15;;;;;;;3.05;2.78;;;;;;;;;;5005720;28;20044;-59
2021/06/08 01:13:42;;;;;;;3.20;2.90;;;;;;;;;;5005378;28;20451;-59
2021/06/08 01:16:07;;;;;;;3.05;2.75;;;;;;;;;;5004598;28;20018;-59
2021/06/08 01:18:33;;;;;;;3.20;2.90;;;;;;;;;;5002527;28;20362;-59
2021/06/08 01:21:12;;;;;;;3.20;2.95;;;;;;;;;;4997520;28;20031;-59
2021/06/08 01:23:39;;;;;;;3.75;3.45;;;;;;;;;;4999433;28;20041;-59
2021/06/08 01:26:05;;;;;;;3.28;2.97;;;;;;;;;;5004959;28;20044;-59
2021/06/08 01:28:33;;;;;;;3.00;2.80;;;;;;;;;;5002426;28;20033;-59
2021/06/08 01:31:03;;;;;;;3.42;3.13;;;;;;;;;;5000889;28;20869;-59
2021/06/08 01:33:28;;;;;;;3.28;2.97;;;;;;;;;;5002639;28;20025;-58
2021/06/08 01:35:54;;;;;;;3.33;3.03;;;;;;;;;;4999005;28;20025;-58
2021/06/08 01:38:20;;;;;;;3.05;2.85;;;;;;;;;;5004441;28;20262;-59
2021/06/08 01:40:51;;;;;;;2.78;2.58;;;;;;;;;;5000212;28;20038;-59
2021/06/08 01:43:17;;;;;;;3.15;2.88;;;;;;;;;;5004673;28;20034;-59
2021/06/08 01:45:48;;;;;;;3.00;2.70;;;;;;;;;;5002116;28;20029;-59
2021/06/08 01:48:13;;;;;;;2.58;2.38;;;;;;;;;;5016287;28;20504;-59
2021/06/08 01:50:39;;;;;;;2.70;2.50;;;;;;;;;;5001328;28;20029;-59
2021/06/08 01:53:09;;;;;;;4.32;3.33;;;;;;;;;;5000769;28;20030;-59
2021/06/08 01:55:39;;;;;;;2.90;2.70;;;;;;;;;;5004001;28;20512;-59
2021/06/08 01:58:11;;;;;;;4.43;2.97;;;;;;;;;;4997546;28;20092;-59
2021/06/08 02:00:43;;;;;;;2.67;2.47;;;;;;;;;;4994840;28;20030;-59
2021/06/08 02:03:19;;;;;;;3.08;2.40;;;;;;;;;;5002523;28;20057;-59
2021/06/08 02:05:59;;;;;;;3.00;2.65;;;;;;;;;;4997035;28;20041;-59
2021/06/08 02:08:43;;;;;;;2.70;2.50;;;;;;;;;;5017590;28;20033;-59
2021/06/08 02:11:25;;;;;;;4.40;2.42;;;;;;;;;;5005143;28;20120;-60
2021/06/08 02:14:01;;;;;;;4.13;3.00;;;;;;;;;;4997279;28;20037;-60
2021/06/08 02:16:39;;;;;;;3.92;3.22;;;;;;;;;;5003783;28;20030;-60
2021/06/08 02:19:05;;;;;;;4.15;3.33;;;;;;;;;;4996153;28;20136;-59
2021/06/08 02:21:34;;;;;;;3.05;2.85;;;;;;;;;;5001420;28;20053;-60
2021/06/08 02:24:02;;;;;;;;;;;;;;;;;;5001414;28;20026;-59
2021/06/08 02:26:28;;;;;;;2.60;2.40;;;;;;;;;;4996350;28;19917;-60
2021/06/08 02:28:56;;;;;;;3.40;3.10;;;;;;;;;;5003247;28;20388;-59
2021/06/08 02:31:23;;;;;;;3.85;3.30;;;;;;;;;;4998952;28;20030;-60
2021/06/08 02:33:50;;;;;;;2.92;2.72;;;;;;;;;;5000174;28;20034;-59
2021/06/08 02:36:17;;;;;;;2.83;2.58;;;;;;;;;;4999324;28;20030;-60
2021/06/08 02:38:44;;;;;;;2.53;2.33;;;;;;;;;;4998304;28;20034;-60
2021/06/08 02:41:10;;;;;;;2.53;2.33;;;;;;;;;;5002350;28;20033;-60
2021/06/08 02:43:37;;;;;;;2.58;2.22;;;;;;;;;;5000307;28;20125;-60
2021/06/08 02:46:04;;;;;;;2.63;2.42;;;;;;;;;;5001629;28;20588;-59
2021/06/08 02:48:31;;;;;;;2.65;2.45;;;;;;;;;;5004572;28;20423;-60
2021/06/08 02:50:57;;;;;;;2.35;2.15;;;;;;;;;;4994761;28;20073;-59
2021/06/08 02:53:24;;;;;;;2.45;2.25;;;;;;;;;;4996505;28;20026;-59
2021/06/08 02:55:53;;;;;;;2.47;2.28;;;;;;;;;;4997261;28;20358;-60
2021/06/08 02:58:20;;;;;;;2.22;2.10;;;;;;;;;;5002230;28;20381;-60
2021/06/08 03:00:46;;;;;;;2.28;2.08;;;;;;;;;;5005242;28;20040;-60
2021/06/08 03:03:22;;;;;;;2.70;2.50;;;;;;;;;;5001220;28;20034;-60
2021/06/08 03:05:58;;;;;;;2.25;2.10;;;;;;;;;;4997197;28;20065;-59
2021/06/08 03:08:34;;;;;;;3.97;3.25;;;;;;;;;;5004019;28;20816;-59
2021/06/08 03:11:03;;;;;;;3.28;2.97;;;;;;;;;;4992267;28;20080;-60
2021/06/08 03:13:30;;;;;;;3.33;3.00;;;;;;;;;;4996306;28;20366;-60
2021/06/08 03:15:58;;;;;;;3.08;2.88;;;;;;;;;;4998900;28;20040;-59
2021/06/08 03:18:29;;;;;;;2.83;2.63;;;;;;;;;;5004983;28;20444;-60
2021/06/08 03:20:59;;;;;;;3.05;2.83;;;;;;;;;;4994425;28;20026;-59
2021/06/08 03:23:28;;;;;;;2.75;2.55;;;;;;;;;;5002134;28;20030;-59
2021/06/08 03:25:56;;;;;;;3.05;2.72;;;;;;;;;;4998753;28;20500;-59
2021/06/08 03:28:25;;;;;;;2.70;2.50;;;;;;;;;;5001590;28;20046;-60
2021/06/08 03:30:51;;;;;;;3.03;2.80;;;;;;;;;;5000321;28;20385;-60
2021/06/08 03:33:19;;;;;;;3.00;2.67;;;;;;;;;;5001201;28;20283;-59
2021/06/08 03:35:45;;;;;;;2.83;2.63;;;;;;;;;;5003602;28;20621;-60
2021/06/08 03:38:11;;;;;;;2.80;2.60;;;;;;;;;;4994549;28;20199;-59
2021/06/08 03:40:37;;;;;;;2.67;2.47;;;;;;;;;;4998589;28;20121;-60
2021/06/08 03:43:03;;;;;;;2.33;2.13;;;;;;;;;;4999271;28;20048;-60
2021/06/08 03:45:30;;;;;;;2.58;2.40;;;;;;;;;;5000349;28;20026;-59
2021/06/08 03:47:57;;;;;;;2.40;2.30;;;;;;;;;;5000307;28;20109;-60
2021/06/08 03:50:23;;;;;;;2.88;2.67;;;;;;;;;;5000221;28;20125;-59
2021/06/08 03:52:55;;;;;;;3.03;2.83;;;;;;;;;;5001478;28;20053;-59
2021/06/08 03:55:23;;;;;;;3.83;2.97;;;;;;;;;;4994924;28;20030;-59
2021/06/08 03:57:52;;;;;;;3.22;2.92;;;;;;;;;;4998868;28;20469;-60
2021/06/08 04:00:18;;;;;;;3.67;3.22;;;;;;;;;;5005631;28;20608;-60
2021/06/08 04:02:44;;;;;;;3.53;3.22;;;;;;;;;;4997860;28;20041;-59
2021/06/08 04:05:10;;;;;;;4.32;3.92;;;;;;;;;;5007771;28;20029;-59
2021/06/08 04:07:42;;;;;;;4.50;4.10;;;;;;;;;;5002949;28;20029;-60
2021/06/08 04:10:13;;;;;;;3.55;3.25;;;;;;;;;;5001096;28;20030;-60
2021/06/08 04:12:38;;;;;;;3.60;3.30;;;;;;;;;;5005292;28;20083;-59
2021/06/08 04:15:06;;;;;;;3.25;3.03;;;;;;;;;;5002914;28;20030;-60
2021/06/08 04:17:32;;;;;;;2.65;2.45;;;;;;;;;;5003802;28;20034;-60
2021/06/08 04:20:01;;;;;;;3.03;2.75;;;;;;;;;;5000280;28;20060;-60
2021/06/08 04:22:29;;;;;;;2.50;2.30;;;;;;;;;;5003536;28;20428;-59
2021/06/08 04:24:55;;;;;;;3.65;2.67;;;;;;;;;;4999154;28;20223;-59
2021/06/08 04:27:28;;;;;;;3.70;2.60;;;;;;;;;;4996824;28;20503;-60
2021/06/08 04:29:54;;;;;;;2.72;2.53;;;;;;;;;;5000147;28;20038;-59
2021/06/08 04:32:20;;;;;;;3.63;3.00;;;;;;;;;;5008344;28;20069;-59
2021/06/08 04:34:52;;;;;;;3.78;3.20;;;;;;;;;;5021758;28;20042;-60
2021/06/08 04:37:18;;;;;;;3.22;2.90;;;;;;;;;;5003811;28;20083;-60
2021/06/08 04:39:44;;;;;;;4.43;4.03;;;;;;;;;;4999207;28;20377;-59
2021/06/08 04:42:11;;;;;;;4.72;3.85;;;;;;;;;;5004610;28;20025;-60
2021/06/08 04:44:40;;;;;;;3.88;3.40;;;;;;;;;;5003217;28;20148;-60
2021/06/08 04:47:06;;;;;;;3.72;3.42;;;;;;;;;;4997710;28;20018;-59
2021/06/08 04:49:31;;;;;;;4.28;3.90;;;;;;;;;;5002118;28;20033;-61
2021/06/08 04:51:57;;;;;;;4.57;4.00;;;;;;;;;;4997507;28;20500;-60
2021/06/08 04:54:23;;;;;;;4.43;3.42;;;;;;;;;;5002321;28;20045;-60
2021/06/08 04:56:52;;;;;;;4.88;3.97;;;;;;;;;;5006332;28;20025;-59
2021/06/08 04:59:22;;;;;;;4.45;4.05;;;;;;;;;;5001080;28;20484;-60
2021/06/08 05:01:48;;;;;;;;;;;;;;;;;;4999586;28;20083;-60
2021/06/08 05:04:15;;;;;;;5.60;3.10;;;;;;;;;;5001259;28;19922;-60
2021/06/08 05:06:47;;;;;;;6.68;4.53;;;;;;;;;;5005770;28;20021;-60
2021/06/08 05:09:22;;;;;;;4.75;4.22;;;;;;;;;;4996122;28;20128;-61
2021/06/08 05:11:53;;;;;;;5.40;4.10;;;;;;;;;;4998775;28;20798;-62
2021/06/08 05:14:20;;;;;;;6.13;5.38;;;;;;;;;;5005239;28;20030;-62
2021/06/08 05:16:48;;;;;;;6.07;5.10;;;;;;;;;;5004486;28;20049;-62
2021/06/08 05:19:15;;;;;;;5.30;4.80;;;;;;;;;;4998514;28;20034;-61
2021/06/08 05:21:45;;;;;;;7.43;4.57;;;;;;;;;;4999178;28;20629;-63
2021/06/08 05:24:12;;;;;;;8.38;4.32;;;;;;;;;;5001488;28;20128;-63
2021/06/08 05:26:42;;;;;;;5.00;4.50;;;;;;;;;;5004532;28;20101;-62
2021/06/08 05:29:08;;;;;;;4.95;4.55;;;;;;;;;;5002027;28;20548;-61
2021/06/08 05:31:34;;;;;;;8.18;4.70;;;;;;;;;;4998453;28;20159;-62
2021/06/08 05:34:01;;;;;;;6.57;5.32;;;;;;;;;;5000531;28;20026;-62
2021/06/08 05:36:34;;;;;;;6.50;5.65;;;;;;;;;;5000757;28;20031;-61
2021/06/08 05:39:00;;;;;;;6.20;5.13;;;;;;;;;;5004086;28;20033;-61
2021/06/08 05:41:27;;;;;;;6.30;5.15;;;;;;;;;;5002599;28;20496;-61
2021/06/08 05:43:52;;;;;;;6.90;5.07;;;;;;;;;;5005477;28;20135;-61
2021/06/08 05:46:18;;;;;;;7.97;5.57;;;;;;;;;;5018512;28;20823;-61
2021/06/08 05:48:44;;;;;;;6.18;5.30;;;;;;;;;;5001656;28;20081;-61
2021/06/08 05:51:11;;;;;;;7.57;5.50;;;;;;;;;;5001224;28;20131;-62
2021/06/08 05:53:38;;;;;;;6.72;5.78;;;;;;;;;;5001060;28;20157;-62
2021/06/08 05:56:04;;;;;;;8.15;5.88;;;;;;;;;;5014965;28;20054;-62
2021/06/08 05:58:31;;;;;;;9.38;6.75;;;;;;;;;;5002341;28;20034;-62
2021/06/08 06:00:58;;;;;;;8.35;5.82;;;;;;;;;;5006100;28;20030;-62
2021/06/08 06:03:26;;;;;;;8.95;7.15;;;;;;;;;;5002505;28;20504;-61
2021/06/08 06:06:11;;;;;;;10.82;6.93;;;;;;;;;;4978564;28;20054;-61
2021/06/08 06:08:37;;;;;;;9.45;7.75;;;;;;;;;;5009950;28;20172;-62
2021/06/08 06:11:06;;;;;;;9.05;7.00;;;;;;;;;;4999231;28;20120;-62
2021/06/08 06:13:39;;;;;;;10.32;9.00;;;;;;;;;;4998722;28;20172;-61
2021/06/08 06:16:06;;;;;;;13.23;9.73;;;;;;;;;;5003900;28;20034;-62
2021/06/08 06:18:32;;;;;;;12.75;9.75;;;;;;;;;;5000675;28;20091;-62
2021/06/08 06:20:58;;;;;;;14.35;10.35;;;;;;;;;;4998268;28;20353;-61
2021/06/08 06:23:25;;;;;;;10.60;9.25;;;;;;;;;;4998210;28;20034;-62
2021/06/08 06:25:52;;;;;;;14.05;10.75;;;;;;;;;;4997253;28;20084;-61
2021/06/08 06:28:18;;;;;;;13.20;10.38;;;;;;;;;;5004661;28;20047;-62
2021/06/08 06:30:45;;;;;;;14.35;11.75;;;;;;;;;;5001153;28;20030;-61
2021/06/08 06:33:11;;;;;;;13.20;10.60;;;;;;;;;;4997227;28;20030;-61
2021/06/08 06:35:37;;;;;;;13.88;9.98;;;;;;;;;;5007786;28;20494;-61
2021/06/08 06:38:05;;;;;;;11.82;9.02;;;;;;;;;;5002496;28;20393;-62
2021/06/08 06:40:33;;;;;;;15.05;10.60;;;;;;;;;;4998753;28;20038;-61
2021/06/08 06:43:05;;;;;;;12.60;9.95;;;;;;;;;;5000929;28;20042;-60
2021/06/08 06:45:36;;;;;;;10.90;9.07;;;;;;;;;;5000489;28;20045;-60
2021/06/08 06:48:03;;;;;;;11.45;9.50;;;;;;;;;;5000868;28;20048;-61
2021/06/08 06:50:36;;;;;;;12.60;10.27;;;;;;;;;;5005786;28;20038;-61
2021/06/08 06:53:02;;;;;;;12.68;10.30;;;;;;;;;;5004227;28;20037;-61
2021/06/08 06:55:29;;;;;;;12.07;10.23;;;;;;;;;;5005884;28;20030;-61
2021/06/08 06:57:55;;;;;;;15.30;9.90;;;;;;;;;;5000375;28;20048;-60
2021/06/08 07:00:22;;;;;;;10.38;9.05;;;;;;;;;;4998119;28;20422;-60
2021/06/08 07:02:49;;;;;;;10.45;8.73;;;;;;;;;;4997723;28;20030;-60
2021/06/08 07:05:18;;;;;;;10.95;8.52;;;;;;;;;;4996406;28;20084;-60
2021/06/08 07:07:46;;;;;;;11.82;9.82;;;;;;;;;;4996214;28;20049;-60
2021/06/08 07:10:15;;;;;;;11.60;9.73;;;;;;;;;;5000773;28;20060;-61
2021/06/08 07:12:42;;;;;;;10.65;8.60;;;;;;;;;;4999737;28;20117;-61
2021/06/08 07:15:09;;;;;;;11.95;9.48;;;;;;;;;;5007334;28;20029;-60
2021/06/08 07:17:36;;;;;;;12.98;9.23;;;;;;;;;;4998594;28;20022;-61
2021/06/08 07:20:04;;;;;;;11.82;8.60;;;;;;;;;;4997810;28;20116;-60
2021/06/08 07:22:30;;;;;;;13.02;9.48;;;;;;;;;;5001778;28;20503;-61
2021/06/08 07:24:56;;;;;;;11.38;8.35;;;;;;;;;;5002391;28;20077;-60
2021/06/08 07:27:22;;;;;;;9.40;8.50;;;;;;;;;;5004341;28;20497;-61
2021/06/08 07:29:48;;;;;;;11.40;9.13;;;;;;;;;;5000489;28;20030;-62
2021/06/08 07:32:28;;;;;;;12.25;8.98;;;;;;;;;;5004609;28;20100;-60
2021/06/08 07:35:02;;;;;;;12.82;11.52;;;;;;;;;;5003783;28;20096;-61
2021/06/08 07:37:32;;;;;;;11.73;9.63;;;;;;;;;;5006457;28;20096;-60
2021/06/08 07:40:04;;;;;;;10.80;9.23;;;;;;;;;;5002511;28;20030;-60
2021/06/08 07:42:39;;;;;;;12.27;10.15;;;;;;;;;;5007088;28;20050;-62
2021/06/08 07:45:06;;;;;;;12.80;10.85;;;;;;;;;;5005529;28;20405;-61
2021/06/08 07:47:32;;;;;;;12.25;10.27;;;;;;;;;;4999537;28;20113;-60
2021/06/08 07:50:00;;;;;;;11.32;10.13;;;;;;;;;;5005117;28;20456;-61
2021/06/08 07:52:27;;;;;;;11.15;9.57;;;;;;;;;;5001058;28;20034;-61
2021/06/08 07:54:52;;;;;;;8.85;7.95;;;;;;;;;;5004413;28;20041;-60
2021/06/08 07:57:19;;;;;;;9.60;8.38;;;;;;;;;;5004126;28;20026;-62
2021/06/08 07:59:44;;;;;;;10.82;8.57;;;;;;;;;;5004517;28;20404;-61
2021/06/08 08:02:11;;;;;;;9.25;8.30;;;;;;;;;;5006495;28;20092;-61
2021/06/08 08:04:41;;;;;;;12.07;9.20;;;;;;;;;;4998671;28;20053;-60
2021/06/08 08:07:08;;;;;;;9.98;8.50;;;;;;;;;;5003611;28;20115;-61
2021/06/08 08:09:33;;;;;;;9.73;8.73;;;;;;;;;;4999764;28;20026;-60
2021/06/08 08:12:00;;;;;;;10.45;9.35;;;;;;;;;;5003057;28;20026;-61
2021/06/08 08:14:26;;;;;;;10.50;9.18;;;;;;;;;;5004061;28;20033;-60
2021/06/08 08:16:54;;;;;;;11.07;9.90;;;;;;;;;;5003572;28;20026;-62
2021/06/08 08:19:21;;;;;;;10.73;9.30;;;;;;;;;;5005488;28;20125;-62
2021/06/08 08:21:47;;;;;;;10.98;8.85;;;;;;;;;;5002012;28;20504;-60
2021/06/08 08:24:13;;;;;;;11.32;8.73;;;;;;;;;;5004321;28;20108;-61
2021/06/08 08:26:39;;;;;;;10.30;8.60;;;;;;;;;;4995947;28;20452;-61
2021/06/08 08:29:05;;;;;;;9.45;8.55;;;;;;;;;;5015962;28;20341;-60
2021/06/08 08:31:32;;;;;;;10.35;9.05;;;;;;;;;;5000859;28;20030;-61
2021/06/08 08:33:58;;;;;;;10.40;8.85;;;;;;;;;;5002987;28;20042;-60
2021/06/08 08:36:27;;;;;;;12.52;10.57;;;;;;;;;;5014112;28;20243;-59
2021/06/08 08:38:53;;;;;;;13.32;9.75;;;;;;;;;;5002726;28;20491;-60
2021/06/08 08:41:20;;;;;;;10.02;8.98;;;;;;;;;;4999771;28;20048;-60
2021/06/08 08:43:48;;;;;;;11.10;10.00;;;;;;;;;;5001110;28;20105;-61
2021/06/08 08:46:14;;;;;;;11.52;10.32;;;;;;;;;;5000995;28;20030;-61
2021/06/08 08:48:41;;;;;;;13.38;12.07;;;;;;;;;;5001790;28;20030;-60
2021/06/08 08:51:07;;;;;;;15.43;13.93;;;;;;;;;;4997622;28;20034;-60
2021/06/08 08:53:36;;;;;;;20.35;14.90;;;;;;;;;;5002350;28;20021;-60
2021/06/08 08:56:01;;;;;;;20.08;15.25;;;;;;;;;;5002643;28;20072;-60
2021/06/08 08:58:29;;;;;;;15.48;13.88;;;;;;;;;;5002699;28;20034;-60
2021/06/08 09:00:57;;;;;;;18.25;16.35;;;;;;;;;;5000251;28;20026;-60
2021/06/08 09:03:23;;;;;;;15.52;14.02;;;;;;;;;;5004559;28;20031;-60
2021/06/08 09:05:48;;;;;;;17.70;15.98;;;;;;;;;;5002923;28;20128;-60
2021/06/08 09:08:14;;;;;;;17.58;15.93;;;;;;;;;;5003893;28;20413;-61
2021/06/08 09:10:42;;;;;;;18.50;15.60;;;;;;;;;;4997846;28;20030;-61
2021/06/08 09:13:08;;;;;;;17.85;16.15;;;;;;;;;;5007302;28;20038;-60
2021/06/08 09:15:37;;;;;;;17.17;15.48;;;;;;;;;;4996800;28;20022;-61
2021/06/08 09:18:03;;;;;;;16.65;15.02;;;;;;;;;;5000787;28;20029;-61
2021/06/08 09:20:28;;;;;;;15.23;13.80;;;;;;;;;;5007063;28;20376;-62
2021/06/08 09:23:02;;;;;;;16.77;15.27;;;;;;;;;;5005941;28;20393;-61
2021/06/08 09:25:35;;;;;;;17.17;15.55;;;;;;;;;;5004546;28;20037;-61
2021/06/08 09:28:16;;;;;;;16.73;15.13;;;;;;;;;;5005282;28;20045;-60
2021/06/08 09:30:42;;;;;;;15.60;14.02;;;;;;;;;;5015809;28;20033;-61
2021/06/08 09:33:22;;;;;;;15.27;13.88;;;;;;;;;;5016047;28;20048;-61
2021/06/08 09:35:52;;;;;;;15.77;14.25;;;;;;;;;;5022828;28;20026;-60
2021/06/08 09:38:18;;;;;;;16.20;14.60;;;;;;;;;;5019615;28;20030;-61
2021/06/08 09:40:43;;;;;;;15.77;14.38;;;;;;;;;;5009802;28;20040;-61
2021/06/08 09:43:11;;;;;;;16.25;14.75;;;;;;;;;;5017814;28;20113;-62
2021/06/08 09:45:44;;;;;;;16.77;15.27;;;;;;;;;;5015587;28;20033;-60
2021/06/08 09:48:10;;;;;;;15.63;14.02;;;;;;;;;;5005224;28;20129;-60
2021/06/08 09:50:45;;;;;;;14.82;13.50;;;;;;;;;;5010276;28;20038;-60
2021/06/08 09:53:24;;;;;;;15.98;14.38;;;;;;;;;;5004830;28;20591;-61
2021/06/08 09:56:02;;;;;;;16.23;14.82;;;;;;;;;;4998658;28;20104;-62
2021/06/08 09:58:29;;;;;;;14.98;13.63;;;;;;;;;;4998085;28;20671;-61
2021/06/08 10:01:21;;;;;;;15.73;14.27;;;;;;;;;;5001431;28;20036;-61
2021/06/08 10:03:52;;;;;;;15.40;13.95;;;;;;;;;;5000078;28;20117;-61
2021/06/08 10:06:26;;;;;;;14.43;13.20;;;;;;;;;;4995035;28;20022;-61
2021/06/08 10:09:00;;;;;;;14.73;13.45;;;;;;;;;;5005106;28;20072;-60
2021/06/08 10:11:32;;;;;;;15.23;13.88;;;;;;;;;;5003609;28;20478;-61
2021/06/08 10:14:11;;;;;;;15.43;14.05;;;;;;;;;;5001706;28;20104;-61
2021/06/08 10:16:37;;;;;;;14.73;13.37;;;;;;;;;;5005177;28;20504;-60
2021/06/08 10:19:04;;;;;;;14.07;12.88;;;;;;;;;;4998470;28;20140;-60
2021/06/08 10:21:47;;;;;;;15.48;14.07;;;;;;;;;;4998857;28;20048;-60
2021/06/08 10:24:22;;;;;;;14.25;12.95;;;;;;;;;;5005367;28;20083;-61
2021/06/08 10:26:51;;;;;;;14.70;13.45;;;;;;;;;;5001168;28;20327;-61
2021/06/08 10:29:21;;;;;;;14.05;12.75;;;;;;;;;;5002807;28;20025;-61
2021/06/08 10:31:47;;;;;;;13.07;11.98;;;;;;;;;;5002608;28;20034;-60
2021/06/08 10:34:12;;;;;;;13.23;12.13;;;;;;;;;;4999668;28;20056;-61
2021/06/08 10:36:41;;;;;;;13.73;12.55;;;;;;;;;;4995626;28;20527;-60
2021/06/08 10:39:09;;;;;;;13.48;12.40;;;;;;;;;;4993032;28;20037;-61
2021/06/08 10:41:36;;;;;;;13.85;12.75;;;;;;;;;;5000434;28;20072;-62
2021/06/08 10:44:05;;;;;;;13.02;11.95;;;;;;;;;;5007077;28;20388;-61
2021/06/08 10:46:44;;;;;;;13.30;12.20;;;;;;;;;;5000067;28;20111;-62
2021/06/08 10:49:09;;;;;;;12.50;11.40;;;;;;;;;;4997832;28;20038;-61
2021/06/08 10:51:36;;;;;;;14.07;12.88;;;;;;;;;;4999126;28;20084;-62
2021/06/08 10:54:15;;;;;;;14.68;13.30;;;;;;;;;;4994314;28;20026;-62
2021/06/08 10:56:56;;;;;;;13.60;12.40;;;;;;;;;;5003770;28;20029;-62
2021/06/08 10:59:37;;;;;;;12.98;11.93;;;;;;;;;;4996290;28;20030;-63
2021/06/08 11:02:04;;;;;;;13.05;11.95;;;;;;;;;;5000710;28;20356;-63
2021/06/08 11:04:54;;;;;;;12.80;11.80;;;;;;;;;;4997647;28;20460;-60
2021/06/08 11:07:47;;;;;;;12.52;9.55;;;;;;;;;;5006653;28;20045;-58
2021/06/08 11:10:25;;;;;;;10.63;9.73;;;;;;;;;;5009527;28;20129;-59
2021/06/08 11:13:11;;;;;;;11.18;10.02;;;;;;;;;;5009253;28;20461;-60
2021/06/08 11:15:40;;;;;;;8.82;8.02;;;;;;;;;;5009155;28;20029;-58
2021/06/08 11:18:21;;;;;;;10.38;9.38;;;;;;;;;;5008649;28;20022;-58
2021/06/08 11:20:47;;;;;;;18.35;16.75;;;;;;;;;;5004219;28;20510;-60
2021/06/08 11:23:44;;;;;;;230.82;211.32;;;;;;;;;;5008030;28;20079;-62
2021/06/08 11:26:17;;;;;;;401.42;358.33;;;;;;;;;;5006650;28;20095;-59
2021/06/08 11:28:51;;;;;;;225.50;207.13;;;;;;;;;;5009707;28;20527;-61
2021/06/08 11:31:25;;;;;;;891.17;712.35;;;;;;;;;;5009085;28;20030;-63
2021/06/08 11:34:01;;;;;;;389.70;277.25;;;;;;;;;;5011125;28;20480;-62
2021/06/08 11:36:28;;;;;;;26.40;23.70;;;;;;;;;;5011237;28;20477;-63
2021/06/08 11:39:20;;;;;;;12.70;11.63;;;;;;;;;;5007504;28;20098;-60
2021/06/08 11:42:03;;;;;;;12.88;11.88;;;;;;;;;;5009334;28;20033;-62
2021/06/08 11:44:29;;;;;;;11.95;10.95;;;;;;;;;;5003141;28;20026;-59
2021/06/08 11:47:02;;;;;;;11.00;10.20;;;;;;;;;;5007378;28;20045;-59
2021/06/08 11:49:29;;;;;;;11.30;10.43;;;;;;;;;;5012737;28;20526;-59
2021/06/08 11:52:11;;;;;;;11.50;10.60;;;;;;;;;;5005250;28;20077;-58
2021/06/08 11:54:39;;;;;;;11.25;10.35;;;;;;;;;;5010413;28;20034;-59
2021/06/08 11:57:22;;;;;;;12.53;11.53;;;;;;;;;;5010127;28;20037;-58
2021/06/08 11:59:47;;;;;;;10.90;9.90;;;;;;;;;;5011680;28;20288;-59
2021/06/08 12:02:28;;;;;;;10.85;9.88;;;;;;;;;;5002759;28;20034;-59
2021/06/08 12:05:19;;;;;;;10.98;9.98;;;;;;;;;;5005848;28;20022;-60
2021/06/08 12:07:51;;;;;;;10.50;9.70;;;;;;;;;;5012360;28;20092;-59
2021/06/08 12:10:39;;;;;;;10.90;10.10;;;;;;;;;;5011763;28;20115;-62
2021/06/08 12:13:05;;;;;;;9.85;9.15;;;;;;;;;;5005178;28;20497;-59
2021/06/08 12:15:35;;;;;;;10.25;9.35;;;;;;;;;;5007517;28;20041;-64
2021/06/08 12:18:13;;;;;;;10.85;9.95;;;;;;;;;;5007133;28;20115;-59
2021/06/08 12:20:41;;;;;;;9.82;9.13;;;;;;;;;;5000119;28;20504;-60
2021/06/08 12:23:07;;;;;;;10.25;9.45;;;;;;;;;;5009410;28;20094;-61
2021/06/08 12:25:34;;;;;;;9.88;9.02;;;;;;;;;;5002724;28;20076;-60
2021/06/08 12:27:59;;;;;;;11.10;10.23;;;;;;;;;;5010403;28;20159;-59
2021/06/08 12:30:30;;;;;;;10.10;9.40;;;;;;;;;;4999126;28;20124;-60
2021/06/08 12:32:59;;;;;;;9.40;8.70;;;;;;;;;;5001856;28;20539;-60
2021/06/08 12:35:40;;;;;;;10.05;9.32;;;;;;;;;;5008734;28;20037;-59
2021/06/08 12:38:10;;;;;;;9.13;8.43;;;;;;;;;;5000334;28;20045;-60
2021/06/08 12:40:35;;;;;;;9.90;9.20;;;;;;;;;;4996356;28;20031;-59
2021/06/08 12:43:02;;;;;;;9.32;8.63;;;;;;;;;;5006470;28;20087;-61
2021/06/08 12:45:28;;;;;;;9.70;9.00;;;;;;;;;;5004629;28;20503;-59
2021/06/08 12:47:53;;;;;;;8.48;7.88;;;;;;;;;;5000267;28;20034;-59
2021/06/08 12:50:28;;;;;;;9.35;8.65;;;;;;;;;;5002861;28;20586;-60
2021/06/08 12:52:59;;;;;;;8.25;7.50;;;;;;;;;;5006911;28;20022;-59
2021/06/08 12:55:28;;;;;;;9.35;8.52;;;;;;;;;;5005703;28;20041;-60
2021/06/08 12:57:58;;;;;;;;;;;;;;;;;;5003349;28;20558;-59
2021/06/08 13:00:24;;;;;;;7.32;6.82;;;;;;;;;;5003413;28;19921;-61
2021/06/08 13:02:51;;;;;;;9.25;8.55;;;;;;;;;;4999962;28;20096;-60
2021/06/08 13:05:20;;;;;;;8.40;7.80;;;;;;;;;;5007266;28;20104;-60
2021/06/08 13:07:49;;;;;;;9.13;8.43;;;;;;;;;;5000236;28;20030;-60
2021/06/08 13:10:23;;;;;;;8.20;7.60;;;;;;;;;;4997487;28;20566;-59
2021/06/08 13:12:51;;;;;;;7.70;7.20;;;;;;;;;;5005885;28;20518;-61
2021/06/08 13:15:28;;;;;;;8.27;7.65;;;;;;;;;;5001803;28;20037;-59
2021/06/08 13:18:12;;;;;;;8.90;8.10;;;;;;;;;;5002029;28;20116;-60
2021/06/08 13:20:44;;;;;;;8.07;7.40;;;;;;;;;;4997399;28;20028;-60
2021/06/08 13:23:32;;;;;;;8.45;7.88;;;;;;;;;;5001690;28;20088;-60
2021/06/08 13:26:00;;;;;;;9.50;8.90;;;;;;;;;;4999649;28;20026;-59
2021/06/08 13:28:38;;;;;;;9.18;8.48;;;;;;;;;;5018816;28;20440;-60
2021/06/08 13:31:15;;;;;;;8.82;8.13;;;;;;;;;;5000669;28;20030;-60
2021/06/08 13:33:43;;;;;;;8.35;7.53;;;;;;;;;;5006361;28;20424;-60
2021/06/08 13:36:20;;;;;;;7.65;7.15;;;;;;;;;;4997022;28;20460;-59
2021/06/08 13:38:46;;;;;;;8.13;7.53;;;;;;;;;;5000715;28;20585;-59
2021/06/08 13:41:11;;;;;;;7.60;7.10;;;;;;;;;;4999361;28;20046;-60
2021/06/08 13:43:46;;;;;;;7.85;7.25;;;;;;;;;;4995604;28;20026;-60
2021/06/08 13:46:13;;;;;;;7.90;7.28;;;;;;;;;;5003641;28;20558;-59
2021/06/08 13:48:47;;;;;;;8.68;6.97;;;;;;;;;;5003364;28;20043;-60
2021/06/08 13:51:23;;;;;;;6.88;6.38;;;;;;;;;;5003606;28;20581;-62
2021/06/08 13:54:09;;;;;;;7.70;7.10;;;;;;;;;;5006234;28;20029;-61
2021/06/08 13:56:48;;;;;;;6.47;6.07;;;;;;;;;;5007430;28;20030;-61
2021/06/08 14:02:03;;;;;;;7.22;6.75;;;;;;;;;;5006401;28;20435;-60
2021/06/08 14:04:46;;;;;;;7.28;6.57;;;;;;;;;;4996581;28;20079;-60
2021/06/08 14:07:13;;;;;;;7.32;6.82;;;;;;;;;;5000397;28;20405;-61
2021/06/08 14:09:44;;;;;;;7.47;6.72;;;;;;;;;;5001221;28;20029;-60
2021/06/08 14:12:10;;;;;;;6.60;6.10;;;;;;;;;;5004042;28;20535;-60
2021/06/08 14:14:36;;;;;;;5.97;5.57;;;;;;;;;;4997920;28;20456;-61
2021/06/08 14:17:13;;;;;;;6.90;6.40;;;;;;;;;;5004167;28;20029;-60
2021/06/08 14:19:41;;;;;;;6.28;5.88;;;;;;;;;;5002998;28;20033;-60
2021/06/08 14:22:07;;;;;;;5.80;5.40;;;;;;;;;;5002523;28;20069;-59
2021/06/08 14:24:38;;;;;;;6.07;5.57;;;;;;;;;;5002450;28;20484;-60
2021/06/08 14:27:15;;;;;;;6.65;6.15;;;;;;;;;;4993898;28;20026;-60
2021/06/08 14:29:41;;;;;;;7.43;6.93;;;;;;;;;;5001632;28;20120;-60
2021/06/08 14:32:07;;;;;;;7.60;7.10;;;;;;;;;;5005251;28;20033;-60
2021/06/08 14:34:34;;;;;;;6.72;6.22;;;;;;;;;;5004890;28;20032;-59
2021/06/08 14:36:59;;;;;;;7.05;6.45;;;;;;;;;;5004471;28;20040;-60
2021/06/08 14:39:26;;;;;;;6.10;5.70;;;;;;;;;;5003567;28;20026;-60
2021/06/08 14:41:52;;;;;;;6.82;6.22;;;;;;;;;;5003872;28;20033;-61
2021/06/08 14:44:21;;;;;;;6.10;5.65;;;;;;;;;;5006584;28;20181;-60
2021/06/08 14:46:46;;;;;;;5.32;4.93;;;;;;;;;;4998301;28;20087;-60
2021/06/08 14:49:13;;;;;;;6.68;4.95;;;;;;;;;;5001846;28;20433;-60
2021/06/08 14:51:39;;;;;;;4.97;4.57;;;;;;;;;;5002405;28;20482;-61